createdAt,value
2019-01-15T00:04:46.285Z,100669.10
2019-01-15T00:09:42.184Z,100663.07
2019-01-15T00:14:38.089Z,100663.31
2019-01-15T00:19:34.761Z,100659.62
2019-01-15T00:24:30.640Z,100657.07
2019-01-15T00:29:26.594Z,100661.92
2019-01-15T00:34:22.534Z,100659.52
2019-01-15T00:39:18.432Z,100662.77
2019-01-15T00:44:14.433Z,100664.61
2019-01-15T00:49:11.797Z,100668.17
2019-01-15T00:54:07.896Z,100658.71
2019-01-15T00:59:03.798Z,100662.20
2019-01-15T01:03:59.707Z,100658.56
2019-01-15T01:08:55.612Z,100666.81
2019-01-15T01:13:51.544Z,100665.01
2019-01-15T01:18:50.327Z,100669.76
2019-01-15T01:23:46.231Z,100679.33
2019-01-15T01:28:42.142Z,100684.06
2019-01-15T01:33:38.131Z,100671.73
2019-01-15T01:38:34.033Z,100687.64
2019-01-15T01:43:29.932Z,100679.85
2019-01-15T01:48:26.494Z,100666.98
2019-01-15T01:53:22.512Z,100667.39
2019-01-15T01:58:18.407Z,100675.87
2019-01-15T02:03:14.412Z,100674.37
2019-01-15T02:08:10.312Z,100677.52
2019-01-15T02:13:06.280Z,100679.10
2019-01-15T02:18:02.407Z,100664.64
2019-01-15T02:22:58.400Z,100659.63
2019-01-15T02:27:54.386Z,100653.34
2019-01-15T02:32:50.383Z,100649.39
2019-01-15T02:37:46.384Z,100648.16
2019-01-15T02:42:47.008Z,100638.72
2019-01-15T02:47:40.513Z,100643.08
2019-01-15T02:52:36.413Z,100638.17
2019-01-15T02:57:32.454Z,100633.94
2019-01-15T03:02:28.380Z,100637.98
2019-01-15T03:07:24.280Z,100636.08
2019-01-15T03:12:20.182Z,100640.31
2019-01-15T03:17:16.082Z,100636.59
2019-01-15T03:22:12.032Z,100634.39
2019-01-15T03:27:07.932Z,100638.28
2019-01-15T03:32:04.453Z,100635.69
2019-01-15T03:37:00.338Z,100637.73
2019-01-15T03:41:56.374Z,100641.48
2019-01-15T03:46:52.271Z,100642.69
2019-01-15T03:51:48.172Z,100642.69
2019-01-15T03:56:44.066Z,100641.44
2019-01-15T04:01:40.002Z,100639.19
2019-01-15T04:06:36.023Z,100636.25
2019-01-15T04:11:32.027Z,100642.09
2019-01-15T04:16:28.020Z,100645.58
2019-01-15T04:21:23.926Z,100632.05
2019-01-15T04:26:19.829Z,100623.70
2019-01-15T04:31:15.727Z,100620.52
2019-01-15T04:36:11.625Z,100631.55
2019-01-15T04:41:07.518Z,100640.64
2019-01-15T04:46:03.642Z,100620.56
2019-01-15T04:50:59.547Z,100611.52
2019-01-15T04:55:55.455Z,100600.73
2019-01-15T05:00:51.399Z,100597.92
2019-01-15T05:05:47.414Z,100587.08
2019-01-15T05:10:43.303Z,100594.11
2019-01-15T05:15:39.260Z,100597.06
2019-01-15T05:20:35.218Z,100579.56
2019-01-15T05:25:31.115Z,100589.31
2019-01-15T05:30:27.531Z,100576.20
2019-01-15T05:35:23.510Z,100578.38
2019-01-15T05:40:19.620Z,100569.05
2019-01-15T05:50:28.810Z,100571.69
2019-01-15T05:55:24.703Z,100558.27
2019-01-15T06:00:20.663Z,100555.23
2019-01-15T06:05:16.753Z,100546.89
2019-01-15T06:10:13.744Z,100539.73
2019-01-15T06:15:12.591Z,100528.09
2019-01-15T06:20:39.950Z,100528.73
2019-01-15T06:25:36.436Z,100527.63
2019-01-15T06:30:32.958Z,100527.18
2019-01-15T06:35:29.537Z,100514.72
2019-01-15T06:40:25.487Z,100501.42
2019-01-15T06:45:24.494Z,100512.69
2019-01-15T06:50:20.508Z,100503.42
2019-01-15T06:55:18.402Z,100501.26
2019-01-15T07:00:29.003Z,100484.39
2019-01-15T07:05:24.933Z,100493.49
2019-01-15T07:10:35.165Z,100494.35
2019-01-15T07:15:31.161Z,100500.38
2019-01-15T07:20:27.373Z,100504.31
2019-01-15T07:25:27.808Z,100506.31
2019-01-15T07:31:00.612Z,100500.63
2019-01-15T07:35:56.565Z,100506.34
2019-01-15T07:40:52.565Z,100490.70
2019-01-15T07:45:48.840Z,100494.27
2019-01-15T07:50:44.727Z,100495.24
2019-01-15T07:55:40.825Z,100490.03
2019-01-15T08:00:36.898Z,100485.18
2019-01-15T08:05:33.036Z,100487.96
2019-01-15T08:10:28.896Z,100485.84
2019-01-15T08:15:26.614Z,100485.55
2019-01-15T08:20:22.689Z,100486.86
2019-01-15T08:25:18.594Z,100490.78
2019-01-15T08:30:29.933Z,100487.84
2019-01-15T08:35:26.032Z,100480.34
2019-01-15T08:40:22.033Z,100483.28
2019-01-15T08:45:18.232Z,100493.08
2019-01-15T08:50:17.757Z,100493.39
2019-01-15T08:55:13.751Z,100487.38
2019-01-15T09:00:12.260Z,100482.35
2019-01-15T09:05:08.280Z,100474.87
2019-01-15T09:10:13.167Z,100474.55
2019-01-15T09:15:11.874Z,100478.80
2019-01-15T09:20:11.299Z,100477.98
2019-01-15T09:25:07.400Z,100476.38
2019-01-15T09:30:17.720Z,100473.61
2019-01-15T09:35:13.742Z,100466.42
2019-01-15T09:40:12.774Z,100464.33
2019-01-15T09:45:14.253Z,100474.08
2019-01-15T09:50:11.209Z,100464.49
2019-01-15T09:55:08.185Z,100456.00
2019-01-15T10:00:10.514Z,100454.53
2019-01-15T10:05:06.674Z,100463.66
2019-01-15T10:10:11.720Z,100461.55
2019-01-15T10:15:11.423Z,100472.45
2019-01-15T10:20:09.699Z,100464.31
2019-01-15T10:25:08.418Z,100453.04
2019-01-15T10:30:19.567Z,100456.94
2019-01-15T10:35:19.247Z,100443.91
2019-01-15T10:40:15.143Z,100441.78
2019-01-15T10:45:11.181Z,100430.03
2019-01-15T10:50:10.290Z,100431.83
2019-01-15T10:55:07.390Z,100424.28
2019-01-15T11:00:28.320Z,100421.32
2019-01-15T11:05:24.222Z,100424.45
2019-01-15T11:10:20.109Z,100419.38
2019-01-15T11:15:16.009Z,100407.45
2019-01-15T11:20:20.673Z,100401.27
2019-01-15T11:25:16.574Z,100400.92
2019-01-15T11:30:13.765Z,100385.23
2019-01-15T11:35:11.178Z,100388.48
2019-01-15T11:40:10.480Z,100378.47
2019-01-15T11:45:09.782Z,100372.30
2019-01-15T11:50:09.487Z,100374.89
2019-01-15T11:55:05.989Z,100368.31
2019-01-15T12:00:05.805Z,100359.80
2019-01-15T12:05:09.698Z,100372.56
2019-01-15T12:10:11.196Z,100354.95
2019-01-15T12:15:25.800Z,100328.27
2019-01-15T12:20:38.755Z,100339.68
2019-01-15T12:25:36.549Z,100330.14
2019-01-15T12:30:40.166Z,100307.55
2019-01-15T12:35:52.879Z,100321.50
2019-01-15T12:41:08.893Z,100307.19
2019-01-15T12:46:06.991Z,100307.12
2019-01-15T12:51:07.813Z,100307.77
2019-01-15T13:01:31.273Z,100303.15
2019-01-15T13:06:38.382Z,100298.55
2019-01-15T13:11:51.035Z,100307.06
2019-01-15T13:16:55.987Z,100303.47
2019-01-15T13:27:16.250Z,100281.63
2019-01-15T13:32:26.363Z,100280.69
2019-01-15T13:37:36.446Z,100282.73
2019-01-15T13:42:34.287Z,100284.43
2019-01-15T13:47:41.166Z,100280.87
2019-01-15T13:57:49.862Z,100272.60
2019-01-15T14:03:04.583Z,100278.41
2019-01-15T14:08:05.172Z,100268.42
2019-01-15T14:13:16.053Z,100261.74
2019-01-15T14:18:14.040Z,100260.08
2019-01-15T14:28:28.949Z,100252.70
2019-01-15T14:33:26.852Z,100253.45
2019-01-15T14:38:24.643Z,100251.49
2019-01-15T14:43:25.201Z,100235.11
2019-01-15T14:48:22.995Z,100254.68
2019-01-15T14:53:20.801Z,100269.75
2019-01-15T14:58:33.646Z,100264.52
2019-01-15T15:03:31.486Z,100266.11
2019-01-15T15:08:35.421Z,100263.40
2019-01-15T15:13:35.982Z,100261.08
2019-01-15T15:18:40.064Z,100253.27
2019-01-15T15:23:37.865Z,100265.22
2019-01-15T15:28:41.227Z,100268.16
2019-01-15T15:33:51.367Z,100266.71
2019-01-15T15:38:49.170Z,100265.55
2019-01-15T15:43:56.495Z,100270.95
2019-01-15T15:49:01.031Z,100264.89
2019-01-15T15:54:02.311Z,100267.00
2019-01-15T15:59:04.784Z,100265.19
2019-01-15T16:04:04.368Z,100264.20
2019-01-15T16:09:16.249Z,100270.37
2019-01-15T16:14:27.664Z,100266.45
2019-01-15T16:19:47.296Z,100262.84
2019-01-15T16:24:45.802Z,100263.22
2019-01-15T16:30:01.565Z,100256.35
2019-01-15T16:35:18.305Z,100255.38
2019-01-15T16:40:25.797Z,100239.87
2019-01-15T16:45:44.457Z,100245.94
2019-01-15T16:50:44.853Z,100242.52
2019-01-15T16:55:49.478Z,100246.92
2019-01-15T17:01:07.163Z,100242.56
2019-01-15T17:06:14.792Z,100248.09
2019-01-15T17:11:29.265Z,100236.51
2019-01-15T17:16:33.343Z,100235.02
2019-01-15T17:21:43.653Z,100221.80
2019-01-15T17:26:44.333Z,100231.61
2019-01-15T17:31:45.119Z,100245.89
2019-01-15T17:36:45.436Z,100232.83
2019-01-15T17:41:58.686Z,100231.16
2019-01-15T17:47:05.558Z,100237.07
2019-01-15T17:52:03.358Z,100227.41
2019-01-15T17:57:07.041Z,100232.78
2019-01-15T18:02:17.765Z,100222.37
2019-01-15T18:07:18.088Z,100226.61
2019-01-15T18:17:32.001Z,100243.56
2019-01-15T18:22:44.935Z,100228.30
2019-01-15T18:28:01.514Z,100221.11
2019-01-15T18:32:59.472Z,100235.31
2019-01-15T18:37:57.328Z,100230.41
2019-01-15T18:43:00.812Z,100240.86
2019-01-15T18:47:58.609Z,100240.17
2019-01-15T18:52:59.570Z,100253.29
2019-01-15T18:58:14.065Z,100258.60
2019-01-15T19:03:23.863Z,100253.20
2019-01-15T19:08:21.665Z,100250.20
2019-01-15T19:13:31.859Z,100240.37
2019-01-15T19:18:38.748Z,100232.09
2019-01-15T19:23:42.453Z,100238.30
2019-01-15T19:28:40.311Z,100239.28
2019-01-15T19:33:47.129Z,100242.83
2019-01-15T19:38:50.989Z,100243.41
2019-01-15T19:43:48.849Z,100243.69
2019-01-15T19:49:02.767Z,100241.08
2019-01-15T19:54:00.590Z,100240.24
2019-01-15T19:59:13.504Z,100246.79
2019-01-15T20:04:28.180Z,100246.98
2019-01-15T20:09:42.565Z,100250.64
2019-01-15T20:19:50.740Z,100258.27
2019-01-15T20:24:58.078Z,100255.14
2019-01-15T20:30:01.738Z,100259.14
2019-01-15T20:35:16.304Z,100271.04
2019-01-15T20:40:14.439Z,100262.88
2019-01-15T20:45:15.279Z,100268.31
2019-01-15T20:50:29.744Z,100263.89
2019-01-15T20:55:27.635Z,100263.23
2019-01-15T21:00:28.433Z,100266.57
2019-01-15T21:05:41.436Z,100265.56
2019-01-15T21:10:39.257Z,100270.16
2019-01-15T21:21:17.771Z,100259.71
2019-01-15T21:26:32.457Z,100262.69
2019-01-15T21:31:35.987Z,100258.44
2019-01-15T21:36:36.691Z,100253.66
2019-01-15T21:41:37.277Z,100258.34
2019-01-15T21:46:36.112Z,100255.03
2019-01-15T21:51:33.974Z,100256.16
2019-01-15T21:56:48.778Z,100251.08
2019-01-15T22:01:46.667Z,100250.42
2019-01-15T22:06:51.090Z,100257.17
2019-01-15T22:11:54.665Z,100248.75
2019-01-15T22:16:52.457Z,100246.42
2019-01-15T22:21:59.191Z,100247.00
2019-01-15T22:26:57.963Z,100239.59
2019-01-15T22:32:01.861Z,100235.98
2019-01-15T22:37:08.781Z,100237.25
2019-01-15T22:42:22.008Z,100239.04
2019-01-15T22:47:36.660Z,100222.88
2019-01-15T22:52:37.514Z,100230.21
2019-01-15T22:57:51.673Z,100228.58
2019-01-15T23:08:21.490Z,100215.83
2019-01-15T23:13:28.073Z,100210.03
2019-01-15T23:18:42.762Z,100212.28
2019-01-15T23:23:55.708Z,100207.89
2019-01-15T23:28:56.451Z,100214.24
2019-01-15T23:34:11.240Z,100199.58
2019-01-15T23:39:24.103Z,100204.11
2019-01-15T23:44:21.912Z,100186.66
2019-01-15T23:49:24.365Z,100183.56
2019-01-15T23:54:22.136Z,100172.28
2019-01-15T23:59:36.576Z,100169.23
